KGDJ

Granbury Regional Airport

Granbury, Texas, USA
METAR KGDJ 140415Z AUTO 00000KT 10SM CLR M01/M05 A3055 RMK AO2 T10131055
Observed Flight Rules
Nov-14 @ 04:15 UTC (33 minutes ago) Visual Flight Rules
Visibility Clouds
10 miles
  • Clear skies
Temperatures Readings
Current -1°C / 30°F
Dewpoint -6°C / 21°F
Humidity 69%
Altimeter 30.55" Hg
Pressure 1035 hPa
Elevation 237
METAR KGDJ 140415Z AUTO 00000KT 10SM CLR M01/M05 A3055 RMK AO2 T10131055
Observed Flight Rules
Nov-14 @ 04:15 UTC
(33 minutes ago)
VFR
Clouds
  • Clear skies
Temperature Dewpoint
-1°C / 30°F -6°C / 21°F
Humidity Altimeter Pressure
69% 30.55" Hg 1035 hPa